CheckWX is a tool to help pilots better visualize weather data.  It is not intended as a substitute for an official pre-flight weather briefing.

12:36:49 UTC

KSZL METAR
Whiteman AFB Airport
Knob Noster, Missouri, USA
Current

41 mins ago

KSZL 181156Z 27007KT 10SM FEW020 M10/M12 A3030 RMK AO2A SLPNO ALSTG ESTMD 4/004 T11041119 11046 21104 $
Observed
Feb-18 @ 11:56 UTC
Wind
  • 270° at 7 KTS
Visibility
10 SM
Flight Rules
VFR
Cloud Levels
  • Few at 2,000' AGL
Temperature
-10°C / 14°F
Dewpoint
-12°C / 10°F
Humidity
85%
Altimeter
30.3" Hg
Pressure
1026.12 hPa
Snow Depth
4"
Previous

1 hour ago

KSZL 181122Z 28005KT 10SM SCT018 M09/M11 A3026 RMK AO2A SLPNO ALSTG ESTMD $
Observed
Feb-18 @ 11:22 UTC
Wind
  • 280° at 5 KTS
Visibility
10 SM
Flight Rules
VFR
Cloud Levels
  • Scattered at 1,800' AGL
Temperature
-9°C / 16°F
Dewpoint
-11°C / 12°F
Humidity
86%
Altimeter
30.26" Hg
Pressure
1024.72 hPa
Previous

2 hours ago

KSZL 181056Z 28005KT 10SM BKN018 M09/M11 A3026 RMK AO2A SLPNO ALSTG ESTMD T10881110 $
Observed
Feb-18 @ 10:56 UTC
Wind
  • 280° at 5 KTS
Visibility
10 SM
Flight Rules
MVFR
Cloud Levels
  • Broken at 1,800' AGL
Temperature
-9°C / 16°F
Dewpoint
-11°C / 12°F
Humidity
86%
Altimeter
30.26" Hg
Pressure
1024.72 hPa